American Star — WDD7311 — position and weather

sailwx.info

Track history (hours):
 
Tides and Currents Weather Stations Pressure Air Temp Water Temp Dewpoint Dewpoint Depression Visibility Wind Speed Wind Dir Waves Ship Positions

American Star

Owner: American Cruise Lines, Inc, Delmar, DE. More information available from US FCC via Universal Licensing System and Coast Guard Vessel Documentation Center.

Last reported at 2015-May-04 11:10 UTC. Time now 2015-May-04 17:05 UTC.
Position N 31°19' W 081°19'.

Length 60 m; draft 2.1 m.

Type: Ship (hazmat cat C). MMSI: 367184740.

Date/timePositionNaut miles runAvg speedWind from/ knotsBaromVisibWave heightAir tempDewpointWater temp
2015-May-04 11:10N 31°19' W 081°19'4 6.0
2015-May-04 10:28N 31°18' W 081°24'5 5.9
2015-May-04 09:33N 31°13' W 081°26'7 6.5
2015-May-04 08:31N 31°06' W 081°27'  
2015-Apr-29 12:13N 31°47' W 081°10'4 5.8
2015-Apr-29 11:32N 31°51' W 081°09'5 5.0
2015-Apr-29 10:33N 31°55' W 081°06'5 5.4
2015-Apr-29 09:33N 31°59' W 081°02'5 4.7
2015-Apr-29 08:33N 32°04' W 081°02'2 1.6
2015-Apr-29 07:33N 32°05' W 081°01'3 3.3
2015-Apr-29 06:32N 32°05' W 081°05'0 0.0
2015-Apr-29 05:32N 32°05' W 081°05'0 0.0
2015-Apr-29 04:32N 32°05' W 081°05'0 0.0
2015-Apr-29 03:29N 32°05' W 081°05'0 0.0
2015-Apr-29 02:32N 32°05' W 081°05'0 0.0
2015-Apr-29 01:32N 32°05' W 081°05'0 0.0
2015-Apr-29 00:32N 32°05' W 081°05'0 0.0
2015-Apr-28 23:32N 32°05' W 081°05'0 0.0
2015-Apr-28 22:32N 32°05' W 081°05'0 0.0
2015-Apr-28 21:32N 32°05' W 081°05'0 0.0
2015-Apr-28 20:32N 32°05' W 081°05'0 0.0
2015-Apr-28 19:32N 32°05' W 081°05'0 0.0
2015-Apr-28 18:32N 32°05' W 081°05'0 0.0
2015-Apr-28 17:32N 32°05' W 081°05'0 0.0
2015-Apr-28 16:32N 32°05' W 081°05'0 0.0
2015-Apr-28 15:32N 32°05' W 081°05'0 0.0
2015-Apr-28 14:32N 32°05' W 081°05'0 0.0
2015-Apr-28 13:32N 32°05' W 081°05'0 0.0
2015-Apr-28 12:32N 32°05' W 081°05'0 0.0
2015-Apr-28 11:32N 32°05' W 081°05'0 0.0
2015-Apr-28 10:29N 32°05' W 081°05'0 0.0
2015-Apr-28 09:32N 32°05' W 081°05'0 0.0
2015-Apr-28 08:32N 32°05' W 081°05'0 0.0
2015-Apr-28 07:32N 32°05' W 081°05'0 0.0
2015-Apr-28 06:32N 32°05' W 081°05'0 0.0
2015-Apr-28 05:32N 32°05' W 081°05'0 0.0
2015-Apr-28 04:32N 32°05' W 081°05'0 0.0
2015-Apr-28 03:32N 32°05' W 081°05'0 0.0
2015-Apr-28 02:29N 32°05' W 081°05'0 0.0
2015-Apr-28 01:32N 32°05' W 081°05'0 0.0
2015-Apr-28 00:32N 32°05' W 081°05'0 0.4
2015-Apr-27 23:33N 32°05' W 081°05'6 5.6
2015-Apr-27 22:34N 32°04' W 080°58'5 4.7
2015-Apr-27 21:33N 32°07' W 080°54'4 4.3
2015-Apr-27 20:33N 32°08' W 080°49'0 0.0
2015-Apr-27 19:33N 32°08' W 080°49'0 0.0
2015-Apr-27 18:33N 32°08' W 080°49'0 0.0
2015-Apr-27 17:33N 32°08' W 080°49'0 0.0
2015-Apr-27 16:33N 32°08' W 080°49'0 0.0
2015-Apr-27 15:30N 32°08' W 080°49'  
Track history (hours):
 
Tides and Currents Weather Stations Pressure Air Temp Water Temp Dewpoint Dewpoint Depression Visibility Wind Speed Wind Dir Waves Ship Positions

American Star

Owner: American Cruise Lines, Inc, Delmar, DE. More information available from US FCC via Universal Licensing System and Coast Guard Vessel Documentation Center.

Last reported at 2015-May-04 11:10 UTC. Time now 2015-May-04 17:05 UTC.
Position N 31°19' W 081°19'.

Length 60 m; draft 2.1 m.

Type: Ship (hazmat cat C). MMSI: 367184740.

Date/timePositionNaut miles runAvg speedWind from/ knotsBaromVisibWave heightAir tempDewpointWater temp
2015-May-04 11:10N 31°19' W 081°19'4 6.0
2015-May-04 10:28N 31°18' W 081°24'5 5.9
2015-May-04 09:33N 31°13' W 081°26'7 6.5
2015-May-04 08:31N 31°06' W 081°27'  
2015-Apr-29 12:13N 31°47' W 081°10'4 5.8
2015-Apr-29 11:32N 31°51' W 081°09'5 5.0
2015-Apr-29 10:33N 31°55' W 081°06'5 5.4
2015-Apr-29 09:33N 31°59' W 081°02'5 4.7
2015-Apr-29 08:33N 32°04' W 081°02'2 1.6
2015-Apr-29 07:33N 32°05' W 081°01'3 3.3
2015-Apr-29 06:32N 32°05' W 081°05'0 0.0
2015-Apr-29 05:32N 32°05' W 081°05'0 0.0
2015-Apr-29 04:32N 32°05' W 081°05'0 0.0
2015-Apr-29 03:29N 32°05' W 081°05'0 0.0
2015-Apr-29 02:32N 32°05' W 081°05'0 0.0
2015-Apr-29 01:32N 32°05' W 081°05'0 0.0
2015-Apr-29 00:32N 32°05' W 081°05'0 0.0
2015-Apr-28 23:32N 32°05' W 081°05'0 0.0
2015-Apr-28 22:32N 32°05' W 081°05'0 0.0
2015-Apr-28 21:32N 32°05' W 081°05'0 0.0
2015-Apr-28 20:32N 32°05' W 081°05'0 0.0
2015-Apr-28 19:32N 32°05' W 081°05'0 0.0
2015-Apr-28 18:32N 32°05' W 081°05'0 0.0
2015-Apr-28 17:32N 32°05' W 081°05'0 0.0
2015-Apr-28 16:32N 32°05' W 081°05'0 0.0
2015-Apr-28 15:32N 32°05' W 081°05'0 0.0
2015-Apr-28 14:32N 32°05' W 081°05'0 0.0
2015-Apr-28 13:32N 32°05' W 081°05'0 0.0
2015-Apr-28 12:32N 32°05' W 081°05'0 0.0
2015-Apr-28 11:32N 32°05' W 081°05'0 0.0
2015-Apr-28 10:29N 32°05' W 081°05'0 0.0
2015-Apr-28 09:32N 32°05' W 081°05'0 0.0
2015-Apr-28 08:32N 32°05' W 081°05'0 0.0
2015-Apr-28 07:32N 32°05' W 081°05'0 0.0
2015-Apr-28 06:32N 32°05' W 081°05'0 0.0
2015-Apr-28 05:32N 32°05' W 081°05'0 0.0
2015-Apr-28 04:32N 32°05' W 081°05'0 0.0
2015-Apr-28 03:32N 32°05' W 081°05'0 0.0
2015-Apr-28 02:29N 32°05' W 081°05'0 0.0
2015-Apr-28 01:32N 32°05' W 081°05'0 0.0
2015-Apr-28 00:32N 32°05' W 081°05'0 0.4
2015-Apr-27 23:33N 32°05' W 081°05'6 5.6
2015-Apr-27 22:34N 32°04' W 080°58'5 4.7
2015-Apr-27 21:33N 32°07' W 080°54'4 4.3
2015-Apr-27 20:33N 32°08' W 080°49'0 0.0
2015-Apr-27 19:33N 32°08' W 080°49'0 0.0
2015-Apr-27 18:33N 32°08' W 080°49'0 0.0
2015-Apr-27 17:33N 32°08' W 080°49'0 0.0
2015-Apr-27 16:33N 32°08' W 080°49'0 0.0
2015-Apr-27 15:30N 32°08' W 080°49'  

Dump ship's entire track history